Wetterstation Vordersexau
Wetterdaten: Woche 24.07.17 - 30.07.17 (KW30)
Datum Zeit Temp. A. Feuchte A. Luftdruck Regen Wind Richtung Taupunkt Windchill Windben
26.07.2017 02:00 13,8 C 74 % 1008,0 hPa 26,9 l/m 14,3 km/h W 9,2 C 10,0 C 7,9 km/h
26.07.2017 03:00 13,8 C 69 % 1008,1 hPa 0,5 l/m 0,0 km/h W 8,2 C 13,8 C 0,0 km/h
26.07.2017 04:00 13,8 C 66 % 1008,6 hPa 1,6 l/m 0,0 km/h W 7,6 C 13,8 C 0,0 km/h
26.07.2017 05:00 13,7 C 64 % 1008,8 hPa 0,5 l/m 0,0 km/h W-NW 7,0 C 13,7 C 0,0 km/h
26.07.2017 06:00 13,8 C 62 % 1008,9 hPa 0,0 l/m 0,0 km/h W 6,6 C 13,8 C 0,0 km/h
26.07.2017 07:00 13,8 C 60 % 1009,3 hPa 0,5 l/m 0,0 km/h W-SW 6,2 C 13,8 C 0,0 km/h
26.07.2017 08:00 13,5 C 60 % 1009,9 hPa 3,1 l/m 0,0 km/h W-SW 5,9 C 13,5 C 0,0 km/h
26.07.2017 09:00 13,8 C 61 % 1010,2 hPa 0,0 l/m 0,0 km/h W-SW 6,4 C 13,8 C 0,0 km/h
26.07.2017 10:00 14,2 C 69 % 1010,5 hPa 0,0 l/m 0,0 km/h S 8,6 C 14,2 C 0,0 km/h
26.07.2017 11:00 15,4 C 79 % 1010,4 hPa 0,0 l/m 0,0 km/h SW 11,8 C 15,4 C 0,0 km/h
26.07.2017 12:00 16,1 C 83 % 1010,6 hPa 0,0 l/m 0,0 km/h W-NW 13,2 C 16,1 C 0,0 km/h
26.07.2017 13:00 20,9 C 78 % 1010,4 hPa 0,0 l/m 0,0 km/h N-NW 16,9 C 20,9 C 0,0 km/h
26.07.2017 14:00 20,6 C 71 % 1010,7 hPa 0,0 l/m 0,0 km/h W-NW 15,2 C 20,6 C 0,0 km/h
26.07.2017 15:00 23,0 C 58 % 1010,6 hPa 0,0 l/m 12,3 km/h W 14,3 C 21,4 C 6,8 km/h
26.07.2017 16:00 23,0 C 54 % 1010,3 hPa 0,0 l/m 0,0 km/h SW 13,2 C 23,0 C 0,0 km/h
26.07.2017 17:00 24,2 C 52 % 1010,1 hPa 0,0 l/m 1,3 km/h W 13,7 C 24,2 C 0,7 km/h
26.07.2017 18:00 23,6 C 50 % 1010,0 hPa 0,0 l/m 0,0 km/h S 12,6 C 23,6 C 0,0 km/h
26.07.2017 19:00 21,3 C 57 % 1010,0 hPa 0,0 l/m 0,0 km/h S 12,4 C 21,3 C 0,0 km/h
26.07.2017 20:00 16,9 C 74 % 1010,3 hPa 0,0 l/m 0,0 km/h S-SO 12,2 C 16,9 C 0,0 km/h
26.07.2017 21:00 14,8 C 79 % 1010,5 hPa 0,0 l/m 0,0 km/h SO 11,2 C 14,8 C 0,0 km/h
26.07.2017 22:00 14,1 C 82 % 1010,5 hPa 0,0 l/m 0,0 km/h SO 11,1 C 14,1 C 0,0 km/h
26.07.2017 23:00 12,9 C 83 % 1010,5 hPa 0,0 l/m 0,0 km/h SO 10,1 C 12,9 C 0,0 km/h
27.07.2017 00:00 12,6 C 83 % 1010,3 hPa 0,0 l/m 0,0 km/h SO 9,8 C 12,6 C 0,0 km/h
27.07.2017 01:00 13,3 C 82 % 1010,0 hPa 0,0 l/m 0,0 km/h O-SO 10,3 C 13,3 C 0,0 km/h
27.07.2017 02:00 14,2 C 82 % 1010,0 hPa 0,0 l/m 0,0 km/h W-SW 11,2 C 14,2 C 0,0 km/h
27.07.2017 03:00 17,0 C 81 % 1010,0 hPa 0,0 l/m 16,2 km/h S-SO 13,7 C 13,3 C 9,0 km/h
27.07.2017 04:00 16,4 C 83 % 1009,6 hPa 0,0 l/m 0,0 km/h SW 13,5 C 16,4 C 0,0 km/h
27.07.2017 05:00 16,9 C 82 % 1009,5 hPa 0,0 l/m 1,3 km/h O-SO 13,8 C 16,9 C 0,7 km/h
27.07.2017 06:00 15,7 C 83 % 1009,4 hPa 0,0 l/m 2,6 km/h S-SO 12,8 C 15,7 C 1,4 km/h
27.07.2017 07:00 15,9 C 81 % 1009,7 hPa 0,0 l/m 0,0 km/h S 12,6 C 15,9 C 0,0 km/h
27.07.2017 08:00 16,8 C 80 % 1010,2 hPa 0,0 l/m 0,0 km/h S 13,3 C 16,8 C 0,0 km/h
27.07.2017 09:00 17,3 C 82 % 1010,4 hPa 0,0 l/m 1,9 km/h W-SW 14,2 C 17,3 C 1,1 km/h
27.07.2017 10:00 21,8 C 79 % 1010,0 hPa 0,0 l/m 3,2 km/h W-SW 18,0 C 21,8 C 1,8 km/h
27.07.2017 11:00 21,8 C 72 % 1009,6 hPa 0,0 l/m 0,0 km/h N 16,5 C 21,8 C 0,0 km/h
Min-Datum _ 27.07.17 26.07.17 26.07.17 - 26.07.17 - 26.07.17 26.07.17 26.07.17
_ Min-Zeit 00:55 18:55 02:55 - 03:55 - 08:55 02:55 03:55
Minimum _ 12,6 C 50 % 1008,0 hPa - 0,0 km/h - 5,9 C 10,0 C 0,0 km/h
Max-Datum _ 26.07.17 26.07.17 26.07.17 26.07.17 27.07.17 - 27.07.17 26.07.17 27.07.17
_ Max-Zeit 17:55 12:55 14:55 02:55 03:55 - 10:55 17:55 03:55
Maximum _ 24,2 C 83 % 1010,7 hPa 26,9 l/m 16,2 km/h
S-SO
- 18,0 C 24,2 C 9,0 km/h
S-SO
Durchschnitt _ 16,8 C 72 % 1009,9 hPa #33,2 l/m 1,6 km/h W-SW 11,6 C 16,5 C 0,9 km/h
www.sexauwetter.de